createdAt,value
2017-11-05T00:00:10.525Z,15.40
2017-11-05T00:01:10.522Z,14.70
2017-11-05T00:02:10.520Z,15.00
2017-11-05T00:03:10.513Z,14.70
2017-11-05T00:04:10.515Z,13.30
2017-11-05T00:05:10.501Z,14.40
2017-11-05T00:06:10.490Z,15.30
2017-11-05T00:07:10.486Z,14.90
2017-11-05T00:08:10.482Z,14.90
2017-11-05T00:09:10.479Z,14.70
2017-11-05T00:10:10.472Z,14.40
2017-11-05T00:11:10.479Z,13.80
2017-11-05T00:12:10.464Z,14.40
2017-11-05T00:13:10.453Z,14.30
2017-11-05T00:14:10.453Z,13.90
2017-11-05T00:15:10.448Z,14.00
2017-11-05T00:16:10.439Z,15.00
2017-11-05T00:17:10.436Z,14.90
2017-11-05T00:18:10.447Z,14.80
2017-11-05T00:19:10.426Z,13.50
2017-11-05T00:20:10.421Z,14.30
2017-11-05T00:21:10.415Z,14.10
2017-11-05T00:22:10.405Z,14.00
2017-11-05T00:23:10.400Z,14.90
2017-11-05T00:24:10.398Z,14.40
2017-11-05T00:25:10.391Z,13.00
2017-11-05T00:26:10.398Z,13.30
2017-11-05T00:27:10.383Z,14.40
2017-11-05T00:28:10.376Z,14.40
2017-11-05T00:29:10.367Z,13.70
2017-11-05T00:30:10.366Z,14.70
2017-11-05T00:31:10.361Z,15.40
2017-11-05T00:32:10.357Z,15.60
2017-11-05T00:33:10.353Z,16.30
2017-11-05T00:34:10.347Z,15.80
2017-11-05T00:35:10.341Z,15.30
2017-11-05T00:36:10.337Z,15.40
2017-11-05T00:37:10.326Z,14.90
2017-11-05T00:38:10.322Z,15.40
2017-11-05T00:39:10.325Z,16.10
2017-11-05T00:40:10.312Z,15.00
2017-11-05T00:41:10.307Z,14.80
2017-11-05T00:42:10.299Z,15.60
2017-11-05T00:43:10.329Z,14.70
2017-11-05T00:44:10.294Z,14.60
2017-11-05T00:45:10.287Z,15.60
2017-11-05T00:46:10.268Z,14.30
2017-11-05T00:47:10.268Z,14.60
2017-11-05T00:48:10.266Z,14.40
2017-11-05T00:49:10.259Z,14.60
2017-11-05T00:50:10.267Z,14.50
2017-11-05T00:51:10.248Z,15.40
2017-11-05T00:52:10.250Z,14.90
2017-11-05T00:53:10.236Z,14.70
2017-11-05T00:54:10.231Z,14.70
2017-11-05T00:55:10.224Z,15.00
2017-11-05T00:56:11.147Z,15.40
2017-11-05T00:57:10.224Z,15.00
2017-11-05T00:58:10.213Z,14.60
2017-11-05T00:59:10.216Z,16.30
2017-11-05T01:00:10.201Z,14.90
2017-11-05T01:01:10.204Z,14.40
2017-11-05T01:02:10.186Z,15.40
2017-11-05T01:03:10.180Z,15.60
2017-11-05T01:04:10.180Z,13.90
2017-11-05T01:05:10.176Z,14.50
2017-11-05T01:06:10.166Z,13.80
2017-11-05T01:07:10.156Z,14.50
2017-11-05T01:08:10.168Z,14.50
2017-11-05T01:09:10.153Z,15.00
2017-11-05T01:10:10.146Z,15.40
2017-11-05T01:11:10.140Z,16.00
2017-11-05T01:12:10.134Z,16.90
2017-11-05T01:13:10.132Z,14.90
2017-11-05T01:14:10.143Z,14.60
2017-11-05T01:15:10.121Z,14.10
2017-11-05T01:16:10.113Z,15.40
2017-11-05T01:17:10.107Z,15.40
2017-11-05T01:18:10.103Z,14.60
2017-11-05T01:19:10.095Z,15.00
2017-11-05T01:20:10.096Z,14.80
2017-11-05T01:21:10.087Z,14.80
2017-11-05T01:22:10.078Z,13.80
2017-11-05T01:23:10.080Z,14.10
2017-11-05T01:24:10.064Z,12.80
2017-11-05T01:25:10.062Z,13.20
2017-11-05T01:26:10.059Z,10.70
2017-11-05T01:27:10.059Z,10.70
2017-11-05T01:28:10.049Z,10.00
2017-11-05T01:29:10.041Z,9.60
2017-11-05T01:30:10.034Z,9.20
2017-11-05T01:31:10.033Z,9.30
2017-11-05T01:32:10.036Z,10.20
2017-11-05T01:33:10.022Z,9.60
2017-11-05T01:34:10.015Z,10.40
2017-11-05T01:35:10.005Z,10.30
2017-11-05T01:36:10.000Z,9.80
2017-11-05T01:37:09.995Z,10.00
2017-11-05T01:38:09.989Z,9.50
2017-11-05T01:39:09.981Z,10.50
2017-11-05T01:40:09.981Z,9.80
2017-11-05T01:41:09.974Z,9.60
2017-11-05T01:42:09.963Z,9.70
2017-11-05T01:43:09.961Z,10.60
2017-11-05T01:44:09.953Z,9.40
2017-11-05T01:45:09.953Z,10.10
2017-11-05T01:46:09.944Z,10.40
2017-11-05T01:47:09.937Z,10.10
2017-11-05T01:48:09.932Z,9.30
2017-11-05T01:49:09.926Z,10.40
2017-11-05T01:50:09.924Z,9.90
2017-11-05T01:51:09.920Z,9.60
2017-11-05T01:52:09.929Z,10.60
2017-11-05T01:53:09.911Z,11.00
2017-11-05T01:54:09.890Z,10.70
2017-11-05T01:55:09.887Z,11.20
2017-11-05T01:56:09.889Z,10.70
2017-11-05T01:57:09.884Z,11.00
2017-11-05T01:58:09.871Z,10.60
2017-11-05T01:59:09.867Z,11.20
2017-11-05T02:00:09.863Z,10.70
2017-11-05T02:01:09.859Z,12.20
2017-11-05T02:02:09.849Z,11.30
2017-11-05T02:03:09.844Z,11.10
2017-11-05T02:04:09.832Z,11.50
2017-11-05T02:05:09.831Z,12.10
2017-11-05T02:06:09.835Z,11.60
2017-11-05T02:07:09.837Z,12.60
2017-11-05T02:08:09.818Z,12.40
2017-11-05T02:09:09.813Z,13.20
2017-11-05T02:10:09.806Z,13.10
2017-11-05T02:11:09.799Z,13.70
2017-11-05T02:12:09.802Z,13.10
2017-11-05T02:13:09.791Z,12.70
2017-11-05T02:14:09.785Z,12.60
2017-11-05T02:15:09.775Z,13.20
2017-11-05T02:16:09.769Z,13.60
2017-11-05T02:17:09.764Z,13.40
2017-11-05T02:18:09.756Z,13.80
2017-11-05T02:19:09.750Z,14.30
2017-11-05T02:20:09.747Z,13.50
2017-11-05T02:21:09.747Z,13.40
2017-11-05T02:22:09.740Z,11.80
2017-11-05T02:23:09.738Z,12.30
2017-11-05T02:24:09.738Z,12.30
2017-11-05T02:25:09.721Z,12.00
2017-11-05T02:26:09.711Z,10.80
2017-11-05T02:27:09.711Z,10.20
2017-11-05T02:28:09.707Z,10.00
2017-11-05T02:29:09.697Z,10.10
2017-11-05T02:30:09.689Z,10.60
2017-11-05T02:31:09.695Z,10.50
2017-11-05T02:32:09.679Z,10.20
2017-11-05T02:33:09.664Z,10.50
2017-11-05T02:34:09.664Z,9.80
2017-11-05T02:35:09.659Z,7.80
2017-11-05T02:36:09.653Z,7.70
2017-11-05T02:37:09.645Z,6.30
2017-11-05T02:38:09.642Z,6.40
2017-11-05T02:39:09.640Z,6.30
2017-11-05T02:40:09.650Z,5.80
2017-11-05T02:41:09.628Z,5.60
2017-11-05T02:42:09.631Z,5.60
2017-11-05T02:43:09.613Z,5.30
2017-11-05T02:44:09.606Z,5.80
2017-11-05T02:45:09.599Z,5.50
2017-11-05T02:46:09.597Z,5.70
2017-11-05T02:47:09.590Z,5.40
2017-11-05T02:48:09.585Z,5.80
2017-11-05T02:49:09.580Z,5.60
2017-11-05T02:50:09.572Z,5.80
2017-11-05T02:51:09.576Z,6.20
2017-11-05T02:52:09.561Z,7.20
2017-11-05T02:53:09.559Z,6.90
2017-11-05T02:54:09.544Z,6.40
2017-11-05T02:55:09.539Z,8.10
2017-11-05T02:56:09.534Z,7.90
2017-11-05T02:57:09.529Z,8.40
2017-11-05T02:58:09.521Z,6.90
2017-11-05T02:59:09.514Z,6.70
2017-11-05T03:00:09.514Z,6.50
2017-11-05T03:01:09.502Z,6.50
2017-11-05T03:02:09.500Z,5.80
2017-11-05T03:03:09.501Z,5.70
2017-11-05T03:04:09.488Z,5.90
2017-11-05T03:05:09.484Z,5.80
2017-11-05T03:06:09.475Z,6.00
2017-11-05T03:07:09.474Z,6.20
2017-11-05T03:08:09.462Z,6.60
2017-11-05T03:09:09.459Z,6.20
2017-11-05T03:10:09.446Z,6.70
2017-11-05T03:11:09.439Z,6.40
2017-11-05T03:12:09.434Z,6.30
2017-11-05T03:13:09.429Z,6.70
2017-11-05T03:14:09.424Z,6.90
2017-11-05T03:15:09.414Z,6.50
2017-11-05T03:16:09.421Z,7.20
2017-11-05T03:17:09.404Z,6.80
2017-11-05T03:18:09.401Z,7.10
2017-11-05T03:19:09.394Z,7.00
2017-11-05T03:20:09.386Z,7.60
2017-11-05T03:21:09.382Z,7.30
2017-11-05T03:22:09.374Z,8.50
2017-11-05T03:23:09.368Z,7.50
2017-11-05T03:24:09.360Z,9.20
2017-11-05T03:25:09.358Z,10.50
2017-11-05T03:26:09.345Z,11.50
2017-11-05T03:27:09.339Z,11.90
2017-11-05T03:28:09.333Z,12.20
2017-11-05T03:29:09.333Z,19.20
2017-11-05T03:30:09.326Z,16.40
2017-11-05T03:31:09.313Z,20.50
2017-11-05T03:32:09.308Z,23.20
2017-11-05T03:33:09.300Z,22.70
2017-11-05T03:34:09.303Z,26.00
2017-11-05T03:35:09.290Z,25.90
2017-11-05T03:36:09.282Z,28.90
2017-11-05T03:37:09.276Z,21.50
2017-11-05T03:38:09.278Z,30.70
2017-11-05T03:39:09.265Z,28.00
2017-11-05T03:40:09.260Z,25.20
2017-11-05T03:41:09.254Z,25.00
2017-11-05T03:42:09.241Z,26.20
2017-11-05T03:43:09.243Z,21.00
2017-11-05T03:44:09.229Z,19.30
2017-11-05T03:45:09.222Z,18.40
2017-11-05T03:46:09.221Z,16.80
2017-11-05T03:47:09.211Z,14.70
2017-11-05T03:48:09.208Z,14.40
2017-11-05T03:49:09.204Z,12.80
2017-11-05T03:50:09.196Z,13.90
2017-11-05T03:51:09.186Z,14.80
2017-11-05T03:52:09.184Z,13.30
2017-11-05T03:53:09.179Z,14.30
2017-11-05T03:54:09.166Z,14.10
2017-11-05T03:55:09.159Z,10.90
2017-11-05T03:56:09.155Z,10.70
2017-11-05T03:57:09.148Z,10.50
2017-11-05T03:58:09.136Z,10.40
2017-11-05T03:59:09.131Z,11.10
2017-11-05T04:00:09.127Z,9.90
2017-11-05T04:01:09.119Z,9.10
2017-11-05T04:02:09.112Z,10.20
2017-11-05T04:03:09.110Z,13.20
2017-11-05T04:04:09.098Z,12.90
2017-11-05T04:05:09.098Z,10.90
2017-11-05T04:06:09.086Z,13.20
2017-11-05T04:07:09.081Z,13.30
2017-11-05T04:08:09.076Z,13.90
2017-11-05T04:09:09.062Z,13.70
2017-11-05T04:10:09.066Z,12.00
2017-11-05T04:11:09.062Z,10.90
2017-11-05T04:12:09.050Z,10.00
2017-11-05T04:13:09.045Z,10.90
2017-11-05T04:14:09.033Z,11.10
2017-11-05T04:15:09.029Z,10.50
2017-11-05T04:16:09.023Z,11.20
2017-11-05T04:17:09.014Z,10.30
2017-11-05T04:18:09.006Z,10.90
2017-11-05T04:19:09.001Z,11.30
2017-11-05T04:20:09.001Z,12.00
2017-11-05T04:21:08.988Z,12.50
2017-11-05T04:22:08.982Z,12.70
2017-11-05T04:23:08.977Z,12.00
2017-11-05T04:24:08.991Z,12.40
2017-11-05T04:25:08.965Z,11.20
2017-11-05T04:26:08.961Z,13.00
2017-11-05T04:27:08.953Z,13.50
2017-11-05T04:28:08.946Z,13.80
2017-11-05T04:29:08.940Z,15.70
2017-11-05T04:30:08.927Z,15.10
2017-11-05T04:31:08.924Z,14.60
2017-11-05T04:32:08.912Z,14.20
2017-11-05T04:33:08.909Z,13.40
2017-11-05T04:34:08.906Z,13.20
2017-11-05T04:35:08.897Z,13.00
2017-11-05T04:36:08.904Z,13.20
2017-11-05T04:37:08.889Z,13.20
2017-11-05T04:38:08.886Z,13.80
2017-11-05T04:39:08.875Z,14.50
2017-11-05T04:40:08.869Z,14.40
2017-11-05T04:41:08.859Z,15.70
2017-11-05T04:42:08.853Z,15.20
2017-11-05T04:43:08.849Z,15.90
2017-11-05T04:44:08.842Z,15.40
2017-11-05T04:45:08.833Z,16.30
2017-11-05T04:46:08.837Z,17.20
2017-11-05T04:47:08.821Z,17.20
2017-11-05T04:48:08.813Z,17.70
2017-11-05T04:49:08.806Z,16.70
2017-11-05T04:50:08.806Z,17.50
2017-11-05T04:51:08.797Z,16.90
2017-11-05T04:52:08.790Z,17.10
2017-11-05T04:53:08.786Z,16.90
2017-11-05T04:54:08.773Z,18.20
2017-11-05T04:55:08.771Z,17.90
2017-11-05T04:56:08.760Z,18.90
2017-11-05T04:57:08.754Z,18.60
2017-11-05T04:58:08.748Z,18.50
2017-11-05T04:59:08.742Z,18.70
2017-11-05T05:00:08.736Z,19.30
2017-11-05T05:01:08.734Z,19.60
2017-11-05T05:02:08.725Z,20.00
2017-11-05T05:03:08.719Z,19.60
2017-11-05T05:04:08.712Z,19.80
2017-11-05T05:05:08.708Z,20.70
2017-11-05T05:06:08.701Z,20.80
2017-11-05T05:07:08.692Z,20.40
2017-11-05T05:08:08.684Z,20.80
2017-11-05T05:09:08.682Z,21.40
2017-11-05T05:10:08.671Z,22.00
2017-11-05T05:11:08.667Z,22.30
2017-11-05T05:12:08.653Z,21.40
2017-11-05T05:13:08.655Z,21.60
2017-11-05T05:14:08.645Z,22.30
2017-11-05T05:15:08.637Z,22.00
2017-11-05T05:16:08.637Z,22.10
2017-11-05T05:17:08.630Z,22.20
2017-11-05T05:18:08.627Z,23.40
2017-11-05T05:19:08.613Z,23.20
2017-11-05T05:20:08.614Z,23.20
2017-11-05T05:21:08.628Z,22.90
2017-11-05T05:22:08.593Z,23.60
2017-11-05T05:23:08.594Z,23.90
2017-11-05T05:24:08.591Z,25.00
2017-11-05T05:25:08.578Z,24.90
2017-11-05T05:26:08.574Z,25.10
2017-11-05T05:27:08.566Z,25.20
2017-11-05T05:28:08.567Z,25.90
2017-11-05T05:29:08.545Z,25.10
2017-11-05T05:30:08.534Z,25.90
2017-11-05T05:31:08.549Z,24.50
2017-11-05T05:32:08.525Z,23.50
2017-11-05T05:33:08.528Z,24.50
2017-11-05T05:34:08.516Z,24.20
2017-11-05T05:35:08.521Z,22.90
2017-11-05T05:36:08.501Z,23.10
2017-11-05T05:37:08.493Z,23.70
2017-11-05T05:38:08.485Z,22.50
2017-11-05T05:39:08.480Z,22.40
2017-11-05T05:40:08.474Z,22.80
2017-11-05T05:41:08.468Z,23.80
2017-11-05T05:42:08.457Z,22.40
2017-11-05T05:43:08.458Z,21.70
2017-11-05T05:44:08.447Z,19.40
2017-11-05T05:45:08.441Z,19.70
2017-11-05T05:46:08.433Z,19.00
2017-11-05T05:47:08.423Z,17.70
2017-11-05T05:48:08.415Z,17.20
2017-11-05T05:49:08.408Z,15.90
2017-11-05T05:50:08.405Z,16.30
2017-11-05T05:51:08.412Z,16.20
2017-11-05T05:52:08.382Z,14.70
2017-11-05T05:53:08.383Z,13.80
2017-11-05T05:54:08.374Z,13.10
2017-11-05T05:55:08.364Z,13.20
2017-11-05T05:56:08.360Z,12.90
2017-11-05T05:57:08.355Z,13.20
2017-11-05T05:58:08.350Z,12.00
2017-11-05T05:59:08.337Z,12.10
2017-11-05T06:00:08.326Z,12.00
2017-11-05T06:01:08.336Z,11.00
2017-11-05T06:02:08.317Z,11.20
2017-11-05T06:03:08.317Z,11.60
2017-11-05T06:04:08.306Z,11.90
2017-11-05T06:05:08.300Z,11.80
2017-11-05T06:06:08.285Z,12.60
2017-11-05T06:07:08.279Z,11.90
2017-11-05T06:08:08.273Z,12.20
2017-11-05T06:09:08.269Z,12.50
2017-11-05T06:10:08.257Z,12.00
2017-11-05T06:11:08.250Z,12.80
2017-11-05T06:12:08.274Z,13.20
2017-11-05T06:13:08.239Z,12.90
2017-11-05T06:14:08.233Z,13.70
2017-11-05T06:15:08.221Z,13.80
2017-11-05T06:16:08.216Z,14.20
2017-11-05T06:17:08.209Z,13.10
2017-11-05T06:18:08.206Z,13.40
2017-11-05T06:19:08.195Z,15.50
2017-11-05T06:20:08.187Z,14.20
2017-11-05T06:21:08.183Z,15.60
2017-11-05T06:22:08.172Z,15.10
2017-11-05T06:23:08.166Z,14.20
2017-11-05T06:24:08.161Z,14.10
2017-11-05T06:25:08.145Z,14.00
2017-11-05T06:26:08.147Z,14.50
2017-11-05T06:27:08.134Z,13.80
2017-11-05T06:28:08.129Z,14.00
2017-11-05T06:29:08.130Z,14.00
2017-11-05T06:30:08.112Z,14.80
2017-11-05T06:31:08.107Z,14.30
2017-11-05T06:32:08.096Z,13.90
2017-11-05T06:33:08.093Z,13.80
2017-11-05T06:34:08.083Z,14.90
2017-11-05T06:35:08.078Z,13.80
2017-11-05T06:36:08.069Z,14.30
2017-11-05T06:37:08.061Z,14.10
2017-11-05T06:38:08.052Z,15.10
2017-11-05T06:39:08.046Z,14.90
2017-11-05T06:40:08.038Z,14.00
2017-11-05T06:41:08.035Z,14.20
2017-11-05T06:42:08.792Z,13.70
2017-11-05T06:43:08.016Z,13.30
2017-11-05T06:44:08.010Z,12.60
2017-11-05T06:45:08.004Z,11.60
2017-11-05T06:46:07.991Z,11.10
2017-11-05T06:47:07.984Z,10.30
2017-11-05T06:48:07.978Z,11.10
2017-11-05T06:49:07.970Z,11.10
2017-11-05T06:50:07.970Z,11.50
2017-11-05T06:51:07.955Z,11.50
2017-11-05T06:52:07.947Z,10.90
2017-11-05T06:53:07.939Z,10.60
2017-11-05T06:54:07.930Z,11.00
2017-11-05T06:55:07.924Z,10.70
2017-11-05T06:56:07.917Z,10.00
2017-11-05T06:57:07.919Z,10.50
2017-11-05T06:58:07.903Z,10.50
2017-11-05T06:59:07.894Z,10.70
2017-11-05T07:00:07.886Z,10.40
2017-11-05T07:01:07.885Z,10.50
2017-11-05T07:02:07.873Z,9.40
2017-11-05T07:03:07.876Z,9.90
2017-11-05T07:04:07.857Z,9.80
2017-11-05T07:05:07.847Z,9.80
2017-11-05T07:06:07.846Z,10.40
2017-11-05T07:07:07.824Z,9.90
2017-11-05T07:08:07.823Z,10.00
2017-11-05T07:09:07.815Z,10.80
2017-11-05T07:10:07.808Z,10.40
2017-11-05T07:11:07.800Z,10.80
2017-11-05T07:12:07.794Z,10.20
2017-11-05T07:13:07.793Z,10.70
2017-11-05T07:14:07.778Z,11.40
2017-11-05T07:15:07.768Z,10.60
2017-11-05T07:16:07.764Z,10.90
2017-11-05T07:17:07.762Z,10.60
2017-11-05T07:18:07.746Z,10.10
2017-11-05T07:19:07.739Z,10.20
2017-11-05T07:20:07.731Z,11.30
2017-11-05T07:21:07.728Z,11.00
2017-11-05T07:22:07.714Z,11.50
2017-11-05T07:23:07.698Z,10.60
2017-11-05T07:24:07.708Z,11.00
2017-11-05T07:25:07.692Z,11.10
2017-11-05T07:26:07.685Z,11.80
2017-11-05T07:27:07.676Z,10.70
2017-11-05T07:28:07.671Z,11.10
2017-11-05T07:29:07.662Z,11.20
2017-11-05T07:30:07.654Z,11.70
2017-11-05T07:31:07.644Z,10.80
2017-11-05T07:32:07.638Z,11.00
2017-11-05T07:33:07.630Z,10.80
2017-11-05T07:34:07.629Z,9.90
2017-11-05T07:35:07.615Z,9.70
2017-11-05T07:36:07.608Z,9.90
2017-11-05T07:37:07.600Z,9.90
2017-11-05T07:38:07.587Z,10.00
2017-11-05T07:39:07.582Z,9.20
2017-11-05T07:40:07.582Z,9.20
2017-11-05T07:41:07.568Z,8.70
2017-11-05T07:42:07.559Z,8.90
2017-11-05T07:43:07.551Z,8.80
2017-11-05T07:44:07.545Z,8.40
2017-11-05T07:45:07.531Z,8.40
2017-11-05T07:46:07.533Z,8.50
2017-11-05T07:47:07.519Z,8.50
2017-11-05T07:48:07.538Z,8.40
2017-11-05T07:49:07.504Z,7.90
2017-11-05T07:50:07.497Z,8.50
2017-11-05T07:51:07.484Z,8.60
2017-11-05T07:52:07.480Z,7.90
2017-11-05T07:53:08.324Z,8.40
2017-11-05T07:54:07.487Z,8.90
2017-11-05T07:55:07.458Z,8.20
2017-11-05T07:56:07.449Z,8.20
2017-11-05T07:57:07.441Z,7.80
2017-11-05T07:58:07.433Z,8.80
2017-11-05T07:59:07.426Z,7.70
2017-11-05T08:00:08.329Z,8.20
2017-11-05T08:01:07.408Z,8.80
2017-11-05T08:02:07.403Z,7.90
2017-11-05T08:03:07.394Z,8.10
2017-11-05T08:04:07.387Z,8.00
2017-11-05T08:05:07.378Z,7.50
2017-11-05T08:06:07.372Z,7.80
2017-11-05T08:07:08.329Z,7.90
2017-11-05T08:08:07.354Z,7.80
2017-11-05T08:09:07.347Z,8.00
2017-11-05T08:10:07.349Z,8.40
2017-11-05T08:11:07.335Z,8.30
2017-11-05T08:12:07.323Z,8.30
2017-11-05T08:13:07.312Z,7.80
2017-11-05T08:14:07.316Z,7.60
2017-11-05T08:15:07.299Z,7.60
2017-11-05T08:16:07.295Z,7.50
2017-11-05T08:17:07.285Z,7.80
2017-11-05T08:18:07.295Z,7.70
2017-11-05T08:19:07.268Z,8.20
2017-11-05T08:20:07.261Z,7.80
2017-11-05T08:21:07.251Z,7.50
2017-11-05T08:22:07.247Z,8.20
2017-11-05T08:23:07.238Z,7.40
2017-11-05T08:24:07.223Z,7.20
2017-11-05T08:25:07.222Z,7.40
2017-11-05T08:26:07.217Z,7.30
2017-11-05T08:27:07.199Z,7.20
2017-11-05T08:28:07.215Z,7.30
2017-11-05T08:29:07.186Z,7.50
2017-11-05T08:30:07.184Z,7.10
2017-11-05T08:31:07.175Z,6.90
2017-11-05T08:32:07.173Z,7.70
2017-11-05T08:33:07.162Z,7.90
2017-11-05T08:34:07.830Z,7.10
2017-11-05T08:35:07.141Z,7.10
2017-11-05T08:36:07.136Z,7.20
2017-11-05T08:37:07.134Z,7.00
2017-11-05T08:38:07.120Z,6.90
2017-11-05T08:39:07.114Z,7.20
2017-11-05T08:40:07.105Z,6.90
2017-11-05T08:41:07.103Z,6.60
2017-11-05T08:42:07.098Z,6.40
2017-11-05T08:43:07.082Z,6.90
2017-11-05T08:44:07.073Z,7.50
2017-11-05T08:45:07.077Z,7.20
2017-11-05T08:46:07.058Z,6.60
2017-11-05T08:47:07.053Z,6.50
2017-11-05T08:48:07.055Z,6.20
2017-11-05T08:49:07.046Z,5.90
2017-11-05T08:50:07.026Z,5.40
2017-11-05T08:51:07.022Z,5.50
2017-11-05T08:52:07.040Z,5.40
2017-11-05T08:53:07.007Z,4.30
2017-11-05T08:54:06.997Z,4.40
2017-11-05T08:55:07.848Z,4.30
2017-11-05T08:56:06.984Z,4.60
2017-11-05T08:57:06.976Z,4.80
2017-11-05T08:58:06.966Z,4.60
2017-11-05T08:59:06.955Z,4.60
2017-11-05T09:00:06.950Z,4.80
2017-11-05T09:01:06.944Z,5.00
2017-11-05T09:02:06.936Z,5.00
2017-11-05T09:03:06.933Z,4.80
2017-11-05T09:04:06.923Z,5.10
2017-11-05T09:05:06.910Z,5.70
2017-11-05T09:06:06.900Z,6.00
2017-11-05T09:07:06.898Z,5.30
2017-11-05T09:08:06.889Z,5.70
2017-11-05T09:09:06.887Z,6.30
2017-11-05T09:10:06.875Z,9.30
2017-11-05T09:11:06.865Z,9.30
2017-11-05T09:12:06.859Z,12.40
2017-11-05T09:13:06.845Z,12.50
2017-11-05T09:14:06.852Z,16.00
2017-11-05T09:15:06.834Z,18.70
2017-11-05T09:16:06.833Z,22.70
2017-11-05T09:17:06.822Z,24.40
2017-11-05T09:18:06.812Z,22.30
2017-11-05T09:19:06.804Z,12.70
2017-11-05T09:20:06.807Z,11.80
2017-11-05T09:21:06.793Z,10.80
2017-11-05T09:22:06.782Z,9.20
2017-11-05T09:23:06.776Z,12.00
2017-11-05T09:24:06.768Z,30.20
2017-11-05T09:25:06.759Z,15.90
2017-11-05T09:26:06.750Z,18.70
2017-11-05T09:27:07.358Z,9.10
2017-11-05T09:28:06.736Z,12.00
2017-11-05T09:29:06.735Z,29.70
2017-11-05T09:30:06.726Z,33.40
2017-11-05T09:31:06.724Z,23.10
2017-11-05T09:32:06.709Z,17.60
2017-11-05T09:33:06.695Z,16.60
2017-11-05T09:34:06.692Z,12.00
2017-11-05T09:35:06.685Z,12.20
2017-11-05T09:36:06.678Z,11.00
2017-11-05T09:37:06.675Z,15.20
2017-11-05T09:38:06.662Z,14.80
2017-11-05T09:39:06.654Z,16.80
2017-11-05T09:40:06.650Z,13.30
2017-11-05T09:41:06.634Z,54.70
2017-11-05T09:42:06.634Z,38.10
2017-11-05T09:43:06.622Z,31.00
2017-11-05T09:44:06.622Z,62.30
2017-11-05T09:45:06.626Z,44.60
2017-11-05T09:46:06.602Z,41.50
2017-11-05T09:47:06.598Z,40.90
2017-11-05T09:48:06.594Z,27.40
2017-11-05T09:49:06.587Z,19.20
2017-11-05T09:50:06.574Z,14.70
2017-11-05T09:51:06.565Z,39.10
2017-11-05T09:52:06.561Z,21.00
2017-11-05T09:53:06.563Z,22.50
2017-11-05T09:54:06.540Z,13.60
2017-11-05T09:55:06.541Z,43.80
2017-11-05T09:56:06.533Z,27.10
2017-11-05T09:57:06.526Z,23.60
2017-11-05T09:58:06.526Z,16.00
2017-11-05T09:59:06.510Z,17.40
2017-11-05T10:00:06.503Z,19.00
2017-11-05T10:01:06.514Z,32.30
2017-11-05T10:02:06.490Z,22.10
2017-11-05T10:03:06.486Z,34.10
2017-11-05T10:04:06.476Z,12.10
2017-11-05T10:05:06.471Z,38.20
2017-11-05T10:06:06.458Z,29.70
2017-11-05T10:07:06.458Z,19.10
2017-11-05T10:08:06.447Z,24.90
2017-11-05T10:09:06.455Z,23.80
2017-11-05T10:10:06.439Z,22.80
2017-11-05T10:11:06.432Z,21.00
2017-11-05T10:12:06.429Z,18.10
2017-11-05T10:13:06.877Z,34.30
2017-11-05T10:14:06.409Z,27.90
2017-11-05T10:15:06.466Z,19.40
2017-11-05T10:16:06.394Z,10.10
2017-11-05T10:17:06.401Z,9.80
2017-11-05T10:18:06.383Z,13.00
2017-11-05T10:19:06.375Z,10.60
2017-11-05T10:20:06.372Z,10.80
2017-11-05T10:21:06.360Z,11.50
2017-11-05T10:22:06.347Z,7.00
2017-11-05T10:23:06.351Z,8.40
2017-11-05T10:24:06.347Z,14.50
2017-11-05T10:25:06.334Z,20.60
2017-11-05T10:26:06.325Z,11.40
2017-11-05T10:27:06.322Z,7.30
2017-11-05T10:28:06.312Z,6.30
2017-11-05T10:29:06.518Z,4.80
2017-11-05T10:30:06.316Z,4.30
2017-11-05T10:31:06.293Z,4.60
2017-11-05T10:32:06.293Z,4.80
2017-11-05T10:33:06.271Z,4.70
2017-11-05T10:34:06.266Z,5.10
2017-11-05T10:35:06.266Z,5.20
2017-11-05T10:36:06.264Z,5.20
2017-11-05T10:37:06.252Z,6.30
2017-11-05T10:38:06.249Z,4.70
2017-11-05T10:39:06.238Z,4.50
2017-11-05T10:40:06.229Z,4.50
2017-11-05T10:41:06.216Z,4.00
2017-11-05T10:42:06.240Z,3.90
2017-11-05T10:43:06.218Z,4.40
2017-11-05T10:44:06.208Z,5.00
2017-11-05T10:45:06.197Z,4.50
2017-11-05T10:46:06.193Z,4.40
2017-11-05T10:47:06.182Z,4.50
2017-11-05T10:48:06.166Z,4.70
2017-11-05T10:49:06.174Z,4.70
2017-11-05T10:50:06.171Z,4.60
2017-11-05T10:51:06.168Z,4.80
2017-11-05T10:52:06.143Z,4.70
2017-11-05T10:53:06.143Z,4.90
2017-11-05T10:54:06.133Z,5.00
2017-11-05T10:55:06.125Z,5.20
2017-11-05T10:56:06.124Z,4.80
2017-11-05T10:57:06.111Z,5.10
2017-11-05T10:58:06.105Z,5.00
2017-11-05T10:59:06.099Z,5.00
2017-11-05T11:00:06.095Z,5.60
2017-11-05T11:01:06.091Z,5.30
2017-11-05T11:02:06.075Z,6.10
2017-11-05T11:03:06.073Z,5.50
2017-11-05T11:04:06.075Z,5.40
2017-11-05T11:05:06.058Z,5.70
2017-11-05T11:06:06.051Z,5.70
2017-11-05T11:07:06.053Z,5.70
2017-11-05T11:08:06.030Z,5.70
2017-11-05T11:09:06.032Z,5.10
2017-11-05T11:10:06.024Z,5.60
2017-11-05T11:11:06.020Z,7.20
2017-11-05T11:12:06.007Z,6.20
2017-11-05T11:13:06.006Z,10.50
2017-11-05T11:14:05.998Z,8.40
2017-11-05T11:15:05.993Z,6.10
2017-11-05T11:16:05.989Z,5.80
2017-11-05T11:17:06.111Z,5.60
2017-11-05T11:18:05.972Z,6.00
2017-11-05T11:19:05.985Z,6.00
2017-11-05T11:20:05.958Z,7.00
2017-11-05T11:21:05.957Z,6.40
2017-11-05T11:22:05.947Z,6.50
2017-11-05T11:23:05.933Z,5.50
2017-11-05T11:24:05.935Z,6.50
2017-11-05T11:25:06.907Z,6.20
2017-11-05T11:26:05.918Z,6.10
2017-11-05T11:27:05.914Z,5.80
2017-11-05T11:28:06.008Z,6.30
2017-11-05T11:29:05.902Z,5.70
2017-11-05T11:30:05.898Z,5.40
2017-11-05T11:31:05.894Z,5.90
2017-11-05T11:32:05.875Z,5.50
2017-11-05T11:33:05.875Z,6.10
2017-11-05T11:34:05.870Z,6.30
2017-11-05T11:35:05.864Z,6.10
2017-11-05T11:36:05.853Z,6.80
2017-11-05T11:37:05.852Z,5.70
2017-11-05T11:38:05.851Z,5.50
2017-11-05T11:39:05.855Z,5.60
2017-11-05T11:40:05.849Z,6.00
2017-11-05T11:41:05.828Z,5.80
2017-11-05T11:42:05.825Z,5.80
2017-11-05T11:43:05.820Z,6.10
2017-11-05T11:44:05.808Z,6.60
2017-11-05T11:45:05.803Z,5.80
2017-11-05T11:46:05.803Z,6.00
2017-11-05T11:47:05.790Z,6.90
2017-11-05T11:48:05.785Z,6.30
2017-11-05T11:49:05.776Z,5.90
2017-11-05T11:50:05.768Z,6.70
2017-11-05T11:51:05.764Z,6.30
2017-11-05T11:52:05.766Z,5.50
2017-11-05T11:53:05.755Z,6.10
2017-11-05T11:54:05.746Z,5.60
2017-11-05T11:55:05.740Z,5.80
2017-11-05T11:56:05.737Z,5.60
2017-11-05T11:57:05.736Z,5.60
2017-11-05T11:58:05.718Z,5.90
2017-11-05T11:59:05.719Z,6.20
2017-11-05T12:00:05.706Z,6.10
2017-11-05T12:01:05.703Z,6.80
2017-11-05T12:02:05.696Z,6.50
2017-11-05T12:03:05.699Z,6.00
2017-11-05T12:04:05.682Z,6.40
2017-11-05T12:05:05.681Z,6.70
2017-11-05T12:06:05.675Z,9.70
2017-11-05T12:07:05.802Z,12.30
2017-11-05T12:08:05.661Z,9.70
2017-11-05T12:09:05.657Z,7.90
2017-11-05T12:10:05.654Z,8.80
2017-11-05T12:11:05.641Z,8.10
2017-11-05T12:12:05.645Z,7.30
2017-11-05T12:13:05.632Z,7.40
2017-11-05T12:14:08.976Z,6.70
2017-11-05T12:15:05.614Z,7.40
2017-11-05T12:16:05.612Z,6.50
2017-11-05T12:17:05.604Z,6.30
2017-11-05T12:18:05.600Z,5.80
2017-11-05T12:19:05.600Z,6.20
2017-11-05T12:20:05.590Z,6.30
2017-11-05T12:21:05.584Z,5.40
2017-11-05T12:22:05.576Z,6.10
2017-11-05T12:23:05.587Z,6.00
2017-11-05T12:24:05.835Z,6.20
2017-11-05T12:25:05.560Z,5.80
2017-11-05T12:26:05.554Z,6.40
2017-11-05T12:27:05.548Z,5.70
2017-11-05T12:28:05.545Z,6.00
2017-11-05T12:29:05.541Z,5.60
2017-11-05T12:30:05.530Z,6.70
2017-11-05T12:31:05.523Z,5.80
2017-11-05T12:32:05.514Z,6.00
2017-11-05T12:33:05.519Z,5.30
2017-11-05T12:34:05.507Z,5.90
2017-11-05T12:35:05.504Z,5.30
2017-11-05T12:36:05.494Z,5.40
2017-11-05T12:37:05.491Z,5.60
2017-11-05T12:38:05.486Z,5.30
2017-11-05T12:39:05.480Z,5.20
2017-11-05T12:40:05.539Z,5.00
2017-11-05T12:41:05.464Z,5.60
2017-11-05T12:42:05.458Z,5.60
2017-11-05T12:43:05.451Z,5.60
2017-11-05T12:44:05.451Z,5.70
2017-11-05T12:45:05.442Z,5.40
2017-11-05T12:46:05.444Z,5.90
2017-11-05T12:47:05.428Z,5.80
2017-11-05T12:48:05.427Z,5.70
2017-11-05T12:49:05.411Z,5.60
2017-11-05T12:50:05.414Z,5.50
2017-11-05T12:51:05.402Z,5.80
2017-11-05T12:52:05.403Z,5.50
2017-11-05T12:53:05.396Z,5.60
2017-11-05T12:54:05.400Z,5.80
2017-11-05T12:55:05.371Z,5.60
2017-11-05T12:56:05.375Z,5.50
2017-11-05T12:57:05.368Z,5.50
2017-11-05T12:58:05.365Z,5.30
2017-11-05T12:59:05.363Z,5.70
2017-11-05T13:00:05.348Z,5.80
2017-11-05T13:01:05.351Z,5.70
2017-11-05T13:02:05.358Z,5.10
2017-11-05T13:03:05.330Z,4.90